createdAt,value
2019-03-30T00:02:09.359Z,101247.94
2019-03-30T00:04:39.367Z,101245.84
2019-03-30T00:07:09.307Z,101252.13
2019-03-30T00:09:39.370Z,101240.58
2019-03-30T00:12:09.489Z,101238.74
2019-03-30T00:14:39.612Z,101244.19
2019-03-30T00:17:09.585Z,101240.27
2019-03-30T00:19:39.721Z,101248.87
2019-03-30T00:22:09.782Z,101237.95
2019-03-30T00:24:39.967Z,101241.95
2019-03-30T00:27:10.034Z,101241.95
2019-03-30T00:29:40.237Z,101239.40
2019-03-30T00:32:10.262Z,101243.52
2019-03-30T00:34:40.381Z,101250.05
2019-03-30T00:37:10.348Z,101243.59
2019-03-30T00:39:40.649Z,101239.95
2019-03-30T00:42:10.752Z,101244.55
2019-03-30T00:44:40.738Z,101236.98
2019-03-30T00:47:10.824Z,101236.25
2019-03-30T00:49:48.952Z,101235.72
2019-03-30T00:52:12.678Z,101233.05
2019-03-30T00:54:42.770Z,101240.31
2019-03-30T00:57:12.790Z,101231.35
2019-03-30T00:59:42.914Z,101238.61
2019-03-30T01:02:13.031Z,101234.59
2019-03-30T01:04:43.058Z,101241.97
2019-03-30T01:07:13.168Z,101243.86
2019-03-30T01:09:43.270Z,101233.44
2019-03-30T01:12:13.241Z,101236.33
2019-03-30T01:14:43.426Z,101234.12
2019-03-30T01:17:13.353Z,101231.52
2019-03-30T01:19:43.368Z,101224.23
2019-03-30T01:22:13.404Z,101231.11
2019-03-30T01:24:43.483Z,101226.47
2019-03-30T01:27:13.467Z,101221.73
2019-03-30T01:29:43.617Z,101224.88
2019-03-30T01:32:13.701Z,101222.55
2019-03-30T01:34:43.769Z,101221.81
2019-03-30T01:37:13.888Z,101221.08
2019-03-30T01:39:43.897Z,101218.23
2019-03-30T01:42:14.235Z,101218.46
2019-03-30T01:44:44.352Z,101210.59
2019-03-30T01:47:14.369Z,101213.73
2019-03-30T01:49:44.389Z,101216.02
2019-03-30T01:52:14.428Z,101219.28
2019-03-30T01:54:44.428Z,101213.95
2019-03-30T01:57:14.385Z,101205.82
2019-03-30T01:59:44.436Z,101207.34
2019-03-30T02:02:14.383Z,101203.20
2019-03-30T02:04:44.495Z,101202.84
2019-03-30T02:07:14.512Z,101201.62
2019-03-30T02:09:44.448Z,101207.90
2019-03-30T02:12:14.542Z,101199.29
2019-03-30T02:14:44.501Z,101202.03
2019-03-30T02:17:15.643Z,101200.07
2019-03-30T02:19:45.626Z,101200.30
2019-03-30T02:22:15.743Z,101195.67
2019-03-30T02:24:45.704Z,101193.67
2019-03-30T02:27:15.763Z,101192.56
2019-03-30T02:29:45.792Z,101191.83
2019-03-30T02:32:15.798Z,101196.41
2019-03-30T02:34:45.792Z,101189.87
2019-03-30T02:37:15.863Z,101189.71
2019-03-30T02:39:46.000Z,101193.41
2019-03-30T02:42:16.087Z,101189.64
2019-03-30T02:44:46.064Z,101193.73
2019-03-30T02:47:16.096Z,101192.03
2019-03-30T02:49:46.067Z,101193.21
2019-03-30T02:52:16.163Z,101185.53
2019-03-30T02:54:46.114Z,101185.59
2019-03-30T02:57:16.192Z,101188.09
2019-03-30T02:59:46.139Z,101188.27
2019-03-30T03:02:16.224Z,101191.41
2019-03-30T03:04:46.186Z,101190.67
2019-03-30T03:07:16.220Z,101189.52
2019-03-30T03:09:46.231Z,101179.47
2019-03-30T03:12:16.294Z,101182.83
2019-03-30T03:14:46.415Z,101174.50
2019-03-30T03:17:16.532Z,101171.84
2019-03-30T03:19:46.485Z,101172.27
2019-03-30T03:22:16.557Z,101173.98
2019-03-30T03:24:46.493Z,101167.93
2019-03-30T03:27:16.489Z,101162.03
2019-03-30T03:29:46.520Z,101168.30
2019-03-30T03:32:16.551Z,101167.72
2019-03-30T03:34:46.583Z,101166.39
2019-03-30T03:37:16.659Z,101166.34
2019-03-30T03:39:46.620Z,101167.20
2019-03-30T03:42:16.754Z,101162.77
2019-03-30T03:44:46.890Z,101166.83
2019-03-30T03:47:16.930Z,101166.45
2019-03-30T03:49:46.991Z,101155.09
2019-03-30T03:52:17.189Z,101157.27
2019-03-30T03:54:47.134Z,101156.05
2019-03-30T03:57:17.419Z,101159.44
2019-03-30T03:59:48.352Z,101156.15
2019-03-30T04:02:18.362Z,101156.05
2019-03-30T04:04:48.348Z,101151.41
2019-03-30T04:07:18.485Z,101149.98
2019-03-30T04:09:48.621Z,101156.83
2019-03-30T04:12:18.628Z,101145.09
2019-03-30T04:14:52.368Z,101148.70
2019-03-30T04:17:22.378Z,101145.58
2019-03-30T04:19:52.395Z,101151.84
2019-03-30T04:22:22.411Z,101151.48
2019-03-30T04:24:52.366Z,101143.73
2019-03-30T04:27:22.537Z,101158.81
2019-03-30T04:29:52.487Z,101153.70
2019-03-30T04:32:22.495Z,101157.05
2019-03-30T04:34:52.437Z,101156.30
2019-03-30T04:37:22.618Z,101151.36
2019-03-30T04:39:52.550Z,101149.59
2019-03-30T04:42:22.556Z,101141.43
2019-03-30T04:44:52.622Z,101146.19
2019-03-30T04:47:22.694Z,101142.31
2019-03-30T04:49:52.826Z,101148.13
2019-03-30T04:52:23.084Z,101146.70
2019-03-30T04:54:53.173Z,101153.70
2019-03-30T04:57:23.460Z,101154.10
2019-03-30T04:59:53.645Z,101146.05
2019-03-30T05:02:23.704Z,101154.00
2019-03-30T05:04:53.783Z,101154.38
2019-03-30T05:07:23.905Z,101155.91
2019-03-30T05:09:54.077Z,101159.69
2019-03-30T05:12:24.175Z,101158.56
2019-03-30T05:14:54.344Z,101159.11
2019-03-30T05:17:24.703Z,101166.69
2019-03-30T05:19:54.781Z,101165.16
2019-03-30T05:22:25.311Z,101174.84
2019-03-30T05:24:55.446Z,101171.03
2019-03-30T05:27:25.613Z,101169.02
2019-03-30T05:29:55.658Z,101177.63
2019-03-30T05:32:25.865Z,101178.08
2019-03-30T05:34:56.021Z,101176.70
2019-03-30T05:37:26.157Z,101173.04
2019-03-30T05:39:56.402Z,101180.84
2019-03-30T05:42:26.485Z,101183.59
2019-03-30T05:44:57.982Z,101183.36
2019-03-30T05:47:28.274Z,101181.07
2019-03-30T05:49:58.633Z,101180.38
2019-03-30T05:52:28.808Z,101184.20
2019-03-30T05:54:58.969Z,101177.31
2019-03-30T05:57:29.133Z,101183.19
2019-03-30T05:59:59.457Z,101176.02
2019-03-30T06:02:29.868Z,101178.79
2019-03-30T06:05:03.138Z,101171.84
2019-03-30T06:07:31.848Z,101177.78
2019-03-30T06:10:01.986Z,101179.03
2019-03-30T06:12:32.117Z,101186.00
2019-03-30T06:15:02.412Z,101183.98
2019-03-30T06:17:32.572Z,101176.05
2019-03-30T06:20:02.833Z,101175.19
2019-03-30T06:22:40.248Z,101178.94
2019-03-30T06:25:04.832Z,101180.95
2019-03-30T06:27:34.998Z,101182.09
2019-03-30T06:30:22.351Z,101176.69
2019-03-30T06:32:52.507Z,101188.27
2019-03-30T06:35:22.832Z,101190.79
2019-03-30T06:37:53.052Z,101188.59
2019-03-30T06:40:23.088Z,101184.09
2019-03-30T06:42:53.328Z,101187.66
2019-03-30T06:45:23.572Z,101181.25
2019-03-30T06:47:53.649Z,101189.28
2019-03-30T06:50:23.937Z,101192.59
2019-03-30T06:52:58.049Z,101185.83
2019-03-30T06:55:26.024Z,101187.06
2019-03-30T06:57:56.104Z,101185.05
2019-03-30T07:00:35.805Z,101182.90
2019-03-30T07:03:09.135Z,101183.53
2019-03-30T07:05:42.755Z,101179.58
2019-03-30T07:08:19.096Z,101176.04
2019-03-30T07:10:49.344Z,101185.67
2019-03-30T07:13:19.555Z,101187.86
2019-03-30T07:15:50.204Z,101193.88
2019-03-30T07:18:20.394Z,101188.91
2019-03-30T07:20:50.453Z,101192.32
2019-03-30T07:23:20.526Z,101186.29
2019-03-30T07:25:50.675Z,101185.87
2019-03-30T07:28:20.876Z,101178.22
2019-03-30T07:30:51.157Z,101185.09
2019-03-30T07:33:21.223Z,101196.78
2019-03-30T07:35:51.393Z,101190.70
2019-03-30T07:38:21.570Z,101193.56
2019-03-30T07:40:51.755Z,101186.84
2019-03-30T07:43:21.900Z,101178.60
2019-03-30T07:45:52.069Z,101189.48
2019-03-30T07:48:22.254Z,101179.78
2019-03-30T07:50:52.505Z,101175.02
2019-03-30T07:53:26.635Z,101172.84
2019-03-30T07:56:07.690Z,101180.70
2019-03-30T07:58:26.606Z,101173.28
2019-03-30T08:00:56.903Z,101167.67
2019-03-30T08:03:27.188Z,101175.53
2019-03-30T08:05:58.366Z,101193.97
2019-03-30T08:08:28.605Z,101205.47
2019-03-30T08:10:58.758Z,101169.84
2019-03-30T08:13:28.902Z,101168.59
2019-03-30T08:15:59.091Z,101195.69
2019-03-30T08:18:29.368Z,101206.97
2019-03-30T08:20:59.557Z,101196.31
2019-03-30T08:23:40.369Z,101189.98
2019-03-30T08:26:01.726Z,101191.52
2019-03-30T08:28:31.860Z,101185.98
2019-03-30T08:31:02.059Z,101178.64
2019-03-30T08:33:32.226Z,101168.59
2019-03-30T08:36:02.405Z,101176.66
2019-03-30T08:38:32.565Z,101178.05
2019-03-30T08:41:02.655Z,101189.57
2019-03-30T08:43:32.836Z,101174.36
2019-03-30T08:46:03.106Z,101189.55
2019-03-30T08:48:33.278Z,101171.83
2019-03-30T08:51:03.337Z,101176.95
2019-03-30T08:53:33.583Z,101172.84
2019-03-30T08:56:03.784Z,101166.65
2019-03-30T08:58:34.045Z,101182.45
2019-03-30T09:01:04.299Z,101196.43
2019-03-30T09:03:34.580Z,101201.99
2019-03-30T09:06:04.883Z,101186.02
2019-03-30T09:08:35.121Z,101173.98
2019-03-30T09:11:05.292Z,101156.82
2019-03-30T09:13:35.392Z,101173.00
2019-03-30T09:16:05.558Z,101162.91
2019-03-30T09:18:35.731Z,101160.45
2019-03-30T09:21:05.878Z,101165.96
2019-03-30T09:23:36.177Z,101153.25
2019-03-30T09:26:06.364Z,101149.66
2019-03-30T09:28:36.644Z,101141.65
2019-03-30T09:31:06.769Z,101141.00
2019-03-30T09:33:36.857Z,101127.30
2019-03-30T09:36:07.019Z,101131.86
2019-03-30T09:38:37.194Z,101141.38
2019-03-30T09:41:07.372Z,101136.67
2019-03-30T09:43:37.875Z,101139.67
2019-03-30T09:46:08.011Z,101136.03
2019-03-30T09:48:38.287Z,101133.59
2019-03-30T09:51:08.530Z,101127.10
2019-03-30T09:53:38.565Z,101119.73
2019-03-30T09:56:08.949Z,101118.46
2019-03-30T09:58:39.129Z,101117.21
2019-03-30T10:01:09.377Z,101129.67
2019-03-30T10:03:39.469Z,101120.55
2019-03-30T10:06:09.772Z,101110.51
2019-03-30T10:08:39.930Z,101113.33
2019-03-30T10:11:10.063Z,101119.38
2019-03-30T10:13:40.263Z,101107.44
2019-03-30T10:16:10.533Z,101104.62
2019-03-30T10:18:40.674Z,101103.26
2019-03-30T10:21:10.960Z,101096.52
2019-03-30T10:23:41.113Z,101097.02
2019-03-30T10:26:11.428Z,101093.77
2019-03-30T10:28:41.699Z,101084.61
2019-03-30T10:31:11.838Z,101079.08
2019-03-30T10:33:42.033Z,101069.93
2019-03-30T10:36:12.313Z,101067.14
2019-03-30T10:38:42.457Z,101057.37
2019-03-30T10:41:12.740Z,101061.61
2019-03-30T10:43:42.918Z,101065.38
2019-03-30T10:46:13.192Z,101061.38
2019-03-30T10:48:43.367Z,101060.72
2019-03-30T10:51:13.607Z,101061.05
2019-03-30T10:53:43.699Z,101060.13
2019-03-30T10:56:13.998Z,101061.71
2019-03-30T10:58:44.258Z,101060.03
2019-03-30T11:01:14.409Z,101055.83
2019-03-30T11:03:44.614Z,101039.70
2019-03-30T11:06:14.738Z,101044.03
2019-03-30T11:08:44.940Z,101035.23
2019-03-30T11:11:15.222Z,101026.23
2019-03-30T11:13:45.605Z,101021.95
2019-03-30T11:16:15.775Z,101020.05
2019-03-30T11:18:45.831Z,101024.80
2019-03-30T11:21:16.109Z,101030.48
2019-03-30T11:23:46.157Z,101013.83
2019-03-30T11:26:16.446Z,101007.25
2019-03-30T11:28:46.737Z,101006.24
2019-03-30T11:31:16.888Z,100996.63
2019-03-30T11:33:46.949Z,100997.55
2019-03-30T11:36:18.761Z,100994.72
2019-03-30T11:38:49.151Z,100993.06
2019-03-30T11:41:19.474Z,100985.23
2019-03-30T11:43:49.579Z,100980.13
2019-03-30T11:46:19.875Z,100984.93
2019-03-30T11:48:49.936Z,100982.99
2019-03-30T11:51:20.114Z,100974.98
2019-03-30T11:53:50.172Z,100964.06
2019-03-30T11:56:20.342Z,100955.05
2019-03-30T11:58:50.391Z,100956.66
2019-03-30T12:01:21.959Z,100949.41
2019-03-30T12:03:52.292Z,100946.04
2019-03-30T12:06:22.556Z,100941.33
2019-03-30T12:08:52.528Z,100938.50
2019-03-30T12:11:22.802Z,100927.41
2019-03-30T12:13:52.987Z,100928.58
2019-03-30T12:16:23.226Z,100918.66
2019-03-30T12:18:53.294Z,100913.78
2019-03-30T12:21:23.588Z,100911.44
2019-03-30T12:23:53.775Z,100904.55
2019-03-30T12:26:24.016Z,100897.89
2019-03-30T12:28:54.326Z,100899.86
2019-03-30T12:31:24.571Z,100891.11
2019-03-30T12:33:54.716Z,100891.19
2019-03-30T12:36:25.012Z,100882.73
2019-03-30T12:38:55.195Z,100876.09
2019-03-30T12:41:25.355Z,100875.51
2019-03-30T12:43:55.540Z,100859.81
2019-03-30T12:46:25.807Z,100865.62
2019-03-30T12:48:55.869Z,100848.55
2019-03-30T12:51:26.146Z,100853.61
2019-03-30T12:53:56.530Z,100841.03
2019-03-30T12:56:26.676Z,100840.19
2019-03-30T12:58:56.862Z,100833.69
2019-03-30T13:01:27.036Z,100824.25
2019-03-30T13:03:57.195Z,100819.20
2019-03-30T13:06:27.383Z,100826.31
2019-03-30T13:08:57.528Z,100812.63
2019-03-30T13:11:27.617Z,100809.23
2019-03-30T13:13:57.699Z,100808.73
2019-03-30T13:16:27.857Z,100804.14
2019-03-30T13:18:57.945Z,100807.33
2019-03-30T13:21:28.215Z,100808.57
2019-03-30T13:23:58.361Z,100805.17
2019-03-30T13:26:28.548Z,100801.50
2019-03-30T13:28:58.710Z,100795.39
2019-03-30T13:31:28.971Z,100793.84
2019-03-30T13:33:59.171Z,100792.49
2019-03-30T13:36:40.520Z,100784.33
2019-03-30T13:39:10.677Z,100785.40
2019-03-30T13:41:40.905Z,100783.02
2019-03-30T13:44:11.126Z,100780.63
2019-03-30T13:46:41.383Z,100781.36
2019-03-30T13:49:11.475Z,100784.12
2019-03-30T13:51:41.630Z,100775.38
2019-03-30T13:54:11.879Z,100777.05
2019-03-30T13:56:42.056Z,100774.50
2019-03-30T13:59:12.231Z,100763.25
2019-03-30T14:01:42.400Z,100759.63
2019-03-30T14:04:12.597Z,100757.02
2019-03-30T14:06:42.835Z,100758.58
2019-03-30T14:09:13.036Z,100755.24
2019-03-30T14:11:43.206Z,100756.95
2019-03-30T14:14:13.385Z,100751.09
2019-03-30T14:16:43.635Z,100749.61
2019-03-30T14:19:13.852Z,100749.80
2019-03-30T14:21:44.090Z,100746.61
2019-03-30T14:24:14.164Z,100742.97
2019-03-30T14:26:44.333Z,100745.25
2019-03-30T14:29:14.464Z,100748.03
2019-03-30T14:31:44.555Z,100740.45
2019-03-30T14:34:14.711Z,100740.02
2019-03-30T14:36:44.691Z,100734.74
2019-03-30T14:39:14.862Z,100742.20
2019-03-30T14:41:45.133Z,100738.13
2019-03-30T14:44:15.206Z,100725.48
2019-03-30T14:46:45.468Z,100724.84
2019-03-30T14:49:15.657Z,100724.70
2019-03-30T14:51:46.032Z,100720.36
2019-03-30T14:54:16.178Z,100722.33
2019-03-30T14:56:46.516Z,100721.28
2019-03-30T14:59:16.643Z,100718.67
2019-03-30T15:01:46.818Z,100719.69
2019-03-30T15:04:16.972Z,100715.47
2019-03-30T15:06:47.272Z,100717.06
2019-03-30T15:09:17.411Z,100719.44
2019-03-30T15:11:47.606Z,100720.58
2019-03-30T15:14:17.761Z,100717.00
2019-03-30T15:16:47.933Z,100716.88
2019-03-30T15:19:18.119Z,100709.52
2019-03-30T15:21:48.278Z,100709.03
2019-03-30T15:24:18.472Z,100704.36
2019-03-30T15:26:59.225Z,100702.91
2019-03-30T15:29:20.658Z,100702.75
2019-03-30T15:31:50.931Z,100694.72
2019-03-30T15:34:21.271Z,100693.45
2019-03-30T15:36:51.303Z,100692.70
2019-03-30T15:39:21.479Z,100687.53
2019-03-30T15:41:51.672Z,100681.52
2019-03-30T15:44:21.840Z,100678.09
2019-03-30T15:46:52.031Z,100681.78
2019-03-30T15:49:22.282Z,100676.70
2019-03-30T15:51:52.456Z,100668.31
2019-03-30T15:54:22.620Z,100673.77
2019-03-30T15:56:52.888Z,100672.33
2019-03-30T15:59:23.064Z,100674.55
2019-03-30T16:01:53.237Z,100663.91
2019-03-30T16:04:23.498Z,100670.80
2019-03-30T16:06:53.760Z,100668.91
2019-03-30T16:09:23.923Z,100665.83
2019-03-30T16:11:54.116Z,100659.12
2019-03-30T16:14:24.275Z,100663.53
2019-03-30T16:16:54.445Z,100664.83
2019-03-30T16:19:24.619Z,100662.41
2019-03-30T16:21:54.875Z,100661.15
2019-03-30T16:24:24.979Z,100657.22
2019-03-30T16:26:55.032Z,100663.80
2019-03-30T16:29:25.102Z,100666.97
2019-03-30T16:31:55.199Z,100663.50
2019-03-30T16:34:25.465Z,100664.98
2019-03-30T16:36:55.617Z,100672.53
2019-03-30T16:39:25.888Z,100670.30
2019-03-30T16:41:56.066Z,100662.64
2019-03-30T16:44:26.359Z,100668.27
2019-03-30T16:46:57.591Z,100665.23
2019-03-30T16:49:28.049Z,100665.93
2019-03-30T16:51:58.177Z,100663.84
2019-03-30T16:54:28.563Z,100663.17
2019-03-30T16:56:58.620Z,100656.28
2019-03-30T16:59:28.871Z,100661.50
2019-03-30T17:01:59.135Z,100657.64
2019-03-30T17:04:29.698Z,100666.55
2019-03-30T17:06:59.970Z,100656.31
2019-03-30T17:09:30.146Z,100660.81
2019-03-30T17:12:00.331Z,100665.06
2019-03-30T17:14:30.375Z,100665.16
2019-03-30T17:17:00.569Z,100660.95
2019-03-30T17:19:30.731Z,100662.97
2019-03-30T17:22:01.019Z,100662.56
2019-03-30T17:24:31.070Z,100657.77
2019-03-30T17:27:01.273Z,100663.51
2019-03-30T17:29:31.331Z,100662.56
2019-03-30T17:32:01.668Z,100672.83
2019-03-30T17:34:31.774Z,100673.23
2019-03-30T17:37:01.908Z,100674.05
2019-03-30T17:39:32.002Z,100669.29
2019-03-30T17:42:02.271Z,100672.46
2019-03-30T17:44:32.449Z,100673.56
2019-03-30T17:47:02.721Z,100680.22
2019-03-30T17:49:33.116Z,100670.03
2019-03-30T17:52:03.284Z,100674.67
2019-03-30T17:54:33.660Z,100676.44
2019-03-30T17:57:03.798Z,100670.94
2019-03-30T17:59:33.983Z,100678.88
2019-03-30T18:02:04.133Z,100673.93
2019-03-30T18:04:34.336Z,100675.28
2019-03-30T18:07:04.584Z,100674.80
2019-03-30T18:09:34.671Z,100673.46
2019-03-30T18:12:04.861Z,100675.76
2019-03-30T18:14:34.904Z,100678.57
2019-03-30T18:17:05.281Z,100675.67
2019-03-30T18:19:35.346Z,100671.27
2019-03-30T18:22:05.646Z,100682.18
2019-03-30T18:24:35.700Z,100679.66
2019-03-30T18:27:05.846Z,100677.39
2019-03-30T18:29:35.942Z,100681.15
2019-03-30T18:32:06.336Z,100679.72
2019-03-30T18:34:36.560Z,100689.44
2019-03-30T18:37:06.653Z,100691.52
2019-03-30T18:39:36.717Z,100696.78
2019-03-30T18:42:06.991Z,100701.97
2019-03-30T18:44:37.152Z,100699.67
2019-03-30T18:47:07.558Z,100701.26
2019-03-30T18:49:37.700Z,100694.13
2019-03-30T18:52:07.887Z,100701.81
2019-03-30T18:54:38.082Z,100700.81
2019-03-30T18:57:08.228Z,100705.70
2019-03-30T18:59:38.384Z,100715.88
2019-03-30T19:02:08.669Z,100713.35
2019-03-30T19:04:38.951Z,100713.65
2019-03-30T19:07:09.128Z,100710.44
2019-03-30T19:09:39.228Z,100716.93
2019-03-30T19:12:09.515Z,100713.78
2019-03-30T19:14:39.777Z,100716.90
2019-03-30T19:17:09.869Z,100718.91
2019-03-30T19:19:40.031Z,100710.98
2019-03-30T19:22:10.102Z,100714.38
2019-03-30T19:24:40.339Z,100716.09
2019-03-30T19:27:10.536Z,100716.58
2019-03-30T19:29:40.798Z,100724.66
2019-03-30T19:32:10.875Z,100720.45
2019-03-30T19:34:41.142Z,100720.52
2019-03-30T19:37:11.233Z,100725.11
2019-03-30T19:39:41.489Z,100723.95
2019-03-30T19:42:11.592Z,100726.13
2019-03-30T19:44:41.735Z,100726.11
2019-03-30T19:47:11.789Z,100723.25
2019-03-30T19:49:42.055Z,100730.17
2019-03-30T19:52:12.352Z,100727.51
2019-03-30T19:54:42.635Z,100732.23
2019-03-30T19:57:12.792Z,100732.58
2019-03-30T19:59:43.064Z,100729.22
2019-03-30T20:02:13.257Z,100736.47
2019-03-30T20:04:43.511Z,100734.30
2019-03-30T20:07:13.691Z,100747.05
2019-03-30T20:09:43.857Z,100737.31
2019-03-30T20:12:14.017Z,100743.69
2019-03-30T20:14:44.212Z,100732.27
2019-03-30T20:17:14.370Z,100740.32
2019-03-30T20:19:44.543Z,100737.63
2019-03-30T20:22:14.709Z,100739.32
2019-03-30T20:24:44.976Z,100735.45
2019-03-30T20:27:15.120Z,100740.30
2019-03-30T20:30:04.198Z,100744.35
2019-03-30T20:32:34.357Z,100747.69
2019-03-30T20:35:04.911Z,100741.48
2019-03-30T20:37:35.158Z,100737.44
2019-03-30T20:40:06.461Z,100740.42
2019-03-30T20:42:36.635Z,100738.11
2019-03-30T20:45:07.365Z,100739.45
2019-03-30T20:47:37.616Z,100738.40
2019-03-30T20:50:08.757Z,100740.73
2019-03-30T20:52:38.911Z,100733.97
2019-03-30T20:55:09.259Z,100737.66
2019-03-30T20:57:39.535Z,100741.02
2019-03-30T21:00:10.176Z,100741.30
2019-03-30T21:02:40.272Z,100736.80
2019-03-30T21:05:10.451Z,100739.49
2019-03-30T21:07:41.915Z,100735.96
2019-03-30T21:10:12.163Z,100737.27
2019-03-30T21:12:42.456Z,100733.39
2019-03-30T21:15:12.721Z,100738.27
2019-03-30T21:17:42.992Z,100734.56
2019-03-30T21:20:13.236Z,100734.72
2019-03-30T21:22:43.307Z,100734.38
2019-03-30T21:25:13.415Z,100735.83
2019-03-30T21:27:43.792Z,100735.16
2019-03-30T21:30:13.858Z,100736.48
2019-03-30T21:32:44.135Z,100731.94
2019-03-30T21:35:14.382Z,100731.70
2019-03-30T21:37:44.570Z,100739.23
2019-03-30T21:40:14.754Z,100734.64
2019-03-30T21:42:45.004Z,100735.97
2019-03-30T21:45:15.174Z,100735.29
2019-03-30T21:47:45.445Z,100734.27
2019-03-30T21:50:15.547Z,100732.66
2019-03-30T21:52:45.808Z,100737.50
2019-03-30T21:55:15.991Z,100738.98
2019-03-30T21:57:46.134Z,100743.51
2019-03-30T22:00:26.933Z,100741.45
2019-03-30T22:02:57.132Z,100742.42
2019-03-30T22:05:27.202Z,100745.41
2019-03-30T22:07:57.673Z,100749.00
2019-03-30T22:10:30.721Z,100749.41
2019-03-30T22:13:01.019Z,100754.27
2019-03-30T22:15:31.142Z,100750.91
2019-03-30T22:18:01.458Z,100752.03
2019-03-30T22:20:31.495Z,100758.33
2019-03-30T22:23:01.776Z,100752.90
2019-03-30T22:25:31.782Z,100748.63
2019-03-30T22:28:03.241Z,100757.28
2019-03-30T22:30:33.538Z,100751.54
2019-03-30T22:33:03.694Z,100756.22
2019-03-30T22:35:33.964Z,100750.78
2019-03-30T22:38:04.133Z,100749.55
2019-03-30T22:40:34.316Z,100748.67
2019-03-30T22:43:04.575Z,100753.55
2019-03-30T22:45:34.760Z,100754.88
2019-03-30T22:48:05.031Z,100753.09
2019-03-30T22:50:35.213Z,100752.70
2019-03-30T22:53:05.303Z,100751.16
2019-03-30T22:55:35.583Z,100751.96
2019-03-30T22:58:05.842Z,100747.79
2019-03-30T23:00:53.688Z,100747.81
2019-03-30T23:03:24.070Z,100740.73
2019-03-30T23:05:54.242Z,100746.45
2019-03-30T23:08:24.461Z,100736.84
2019-03-30T23:10:54.721Z,100736.61
2019-03-30T23:13:24.822Z,100743.11
2019-03-30T23:15:54.975Z,100740.08
2019-03-30T23:18:25.260Z,100740.48
2019-03-30T23:20:55.543Z,100737.81
2019-03-30T23:23:25.603Z,100735.83
2019-03-30T23:25:55.765Z,100740.59
2019-03-30T23:28:25.938Z,100741.23
2019-03-30T23:30:56.307Z,100745.59
2019-03-30T23:33:26.492Z,100739.80
2019-03-30T23:35:56.751Z,100739.30
2019-03-30T23:38:26.945Z,100738.96
2019-03-30T23:40:57.240Z,100738.96
2019-03-30T23:43:27.493Z,100734.10
2019-03-30T23:45:57.779Z,100736.43
2019-03-30T23:48:27.892Z,100739.45
2019-03-30T23:50:58.068Z,100738.12
2019-03-30T23:53:28.264Z,100728.41
2019-03-30T23:55:58.624Z,100732.62
2019-03-30T23:58:28.823Z,100730.17
